Time;durP1;ratioP1;P1;durP2;ratioP2;P2;SDS_P1;SDS_P2;PMS_P1;PMS_P2;Temp;Humidity;BMP_temperature;BMP_pressure;BME280_temperature;BME280_humidity;BME280_pressure;Samples;Min_cycle;Max_cycle;Signal;HPM_P1;HPM_P2
2021/09/12 00:02:09;;;;;;;2.30;0.57;;;16.80;86.70;;;;;;5047715;28;20079;-69
2021/09/12 00:04:36;;;;;;;0.90;0.40;;;16.90;86.90;;;;;;5044177;28;20536;-68
2021/09/12 00:07:02;;;;;;;0.30;0.30;;;16.90;86.80;;;;;;5041902;28;20422;-69
2021/09/12 00:09:29;;;;;;;1.65;0.30;;;16.90;86.80;;;;;;5046679;28;20013;-69
2021/09/12 00:11:56;;;;;;;0.40;0.30;;;16.90;86.80;;;;;;5048368;28;20074;-70
2021/09/12 00:14:22;;;;;;;1.33;0.30;;;16.90;86.70;;;;;;5045140;28;20025;-70
2021/09/12 00:16:48;;;;;;;1.20;0.45;;;16.90;86.70;;;;;;5049275;28;20024;-67
2021/09/12 00:19:15;;;;;;;0.50;0.30;;;16.90;86.70;;;;;;5045488;28;20207;-69
2021/09/12 00:21:41;;;;;;;0.30;0.30;;;16.90;86.60;;;;;;5047537;28;20100;-70
2021/09/12 00:24:08;;;;;;;0.38;0.20;;;16.90;86.60;;;;;;5045263;28;20033;-69
2021/09/12 00:26:35;;;;;;;0.50;0.45;;;16.80;86.50;;;;;;5047829;28;20044;-70
2021/09/12 00:29:01;;;;;;;1.88;0.30;;;16.80;86.60;;;;;;5046390;28;20021;-70
2021/09/12 00:31:28;;;;;;;1.30;0.60;;;16.80;86.70;;;;;;5047676;28;20088;-70
2021/09/12 00:33:54;;;;;;;0.20;0.20;;;16.70;86.80;;;;;;5046982;28;20509;-70
2021/09/12 00:36:21;;;;;;;1.33;0.47;;;16.70;86.80;;;;;;5051102;28;20024;-71
2021/09/12 00:38:47;;;;;;;0.57;0.20;;;16.70;86.80;;;;;;5047485;28;20113;-71
2021/09/12 00:41:14;;;;;;;0.30;0.20;;;16.70;87.00;;;;;;5046657;28;20205;-71
2021/09/12 00:43:40;;;;;;;1.00;0.35;;;16.70;87.20;;;;;;5048899;28;20025;-71
2021/09/12 00:46:07;;;;;;;0.70;0.30;;;16.60;87.20;;;;;;5045654;28;20112;-71
2021/09/12 00:48:35;;;;;;;0.45;0.35;;;16.70;87.10;;;;;;5047795;28;20025;-72
2021/09/12 00:51:03;;;;;;;2.10;0.70;;;16.70;87.00;;;;;;5045390;28;20120;-72
2021/09/12 00:53:32;;;;;;;0.50;0.28;;;16.70;86.90;;;;;;5050304;28;20044;-71
2021/09/12 00:56:01;;;;;;;2.33;0.30;;;16.70;86.80;;;;;;5047523;28;20029;-71
2021/09/12 00:58:29;;;;;;;4.00;0.50;;;16.70;86.80;;;;;;5044881;28;20132;-71
2021/09/12 01:00:56;;;;;;;1.52;0.60;;;16.70;86.80;;;;;;5044121;28;20021;-71
2021/09/12 01:03:23;;;;;;;0.40;0.30;;;16.70;86.80;;;;;;5048809;28;20109;-70
2021/09/12 01:05:50;;;;;;;1.50;0.40;;;16.60;86.70;;;;;;5050897;28;20029;-71
2021/09/12 01:08:17;;;;;;;0.40;0.20;;;16.60;86.70;;;;;;5047339;28;20025;-71
2021/09/12 01:10:43;;;;;;;1.80;0.60;;;16.60;86.90;;;;;;5046151;28;20017;-71
2021/09/12 01:13:10;;;;;;;4.22;0.40;;;16.60;87.00;;;;;;5047361;28;20487;-71
2021/09/12 01:15:36;;;;;;;1.40;0.60;;;16.60;87.00;;;;;;5046276;28;20021;-70
2021/09/12 01:18:03;;;;;;;0.63;0.40;;;16.60;86.90;;;;;;5048744;28;20539;-70
2021/09/12 01:20:30;;;;;;;2.03;0.50;;;16.60;86.90;;;;;;5044996;28;20032;-69
2021/09/12 01:22:56;;;;;;;1.35;0.30;;;16.60;86.90;;;;;;5052289;28;20075;-71
2021/09/12 01:25:23;;;;;;;1.40;1.08;;;16.60;86.90;;;;;;5045204;28;20391;-71
2021/09/12 01:27:49;;;;;;;2.08;0.73;;;16.60;86.90;;;;;;5047580;28;20024;-71
2021/09/12 01:30:16;;;;;;;1.65;1.00;;;16.50;87.10;;;;;;5045402;28;20021;-71
2021/09/12 01:32:42;;;;;;;1.67;0.40;;;16.50;87.50;;;;;;5040734;28;20102;-71
2021/09/12 01:35:09;;;;;;;1.08;0.30;;;16.50;87.60;;;;;;5049665;28;20028;-71
2021/09/12 01:37:36;;;;;;;1.10;0.63;;;16.50;87.70;;;;;;5049630;28;20479;-71
2021/09/12 01:40:03;;;;;;;1.85;0.50;;;16.50;87.70;;;;;;5046642;28;20024;-71
2021/09/12 01:42:29;;;;;;;1.60;0.43;;;16.50;87.70;;;;;;5045416;28;20020;-70
2021/09/12 01:44:56;;;;;;;0.93;0.40;;;16.50;87.70;;;;;;5052694;28;20025;-71
2021/09/12 01:47:22;;;;;;;1.25;0.70;;;16.40;87.80;;;;;;5043365;28;20021;-70
2021/09/12 01:49:49;;;;;;;3.08;0.65;;;16.40;87.90;;;;;;5048470;28;20411;-71
2021/09/12 01:52:16;;;;;;;1.63;0.60;;;16.40;87.90;;;;;;5049264;28;20016;-71
2021/09/12 01:54:42;;;;;;;0.82;0.50;;;16.40;88.00;;;;;;5048639;28;20028;-71
2021/09/12 01:57:09;;;;;;;1.75;0.43;;;16.40;88.00;;;;;;5038829;28;20021;-71
2021/09/12 01:59:35;;;;;;;1.33;0.52;;;16.40;88.10;;;;;;5048629;28;20049;-71
2021/09/12 02:02:02;;;;;;;1.92;0.70;;;16.40;88.00;;;;;;5049674;28;20471;-71
2021/09/12 02:04:29;;;;;;;1.98;0.45;;;16.40;88.30;;;;;;5039739;28;20488;-71
2021/09/12 02:06:55;;;;;;;0.65;0.38;;;16.40;88.10;;;;;;5049165;28;20009;-71
2021/09/12 02:09:26;;;;;;;1.20;0.30;;;16.40;88.50;;;;;;5049576;28;20044;-71
2021/09/12 02:11:53;;;;;;;0.50;0.30;;;16.40;88.60;;;;;;5048497;28;20017;-70
2021/09/12 02:14:20;;;;;;;1.67;0.20;;;16.30;88.70;;;;;;5043867;28;20047;-71
2021/09/12 02:16:47;;;;;;;0.60;0.38;;;16.30;88.50;;;;;;5043883;28;20020;-71
2021/09/12 02:19:13;;;;;;;0.30;0.30;;;16.30;88.50;;;;;;5046787;28;20025;-71
2021/09/12 02:21:40;;;;;;;1.40;0.32;;;16.30;88.70;;;;;;5046335;28;20056;-70
2021/09/12 02:24:06;;;;;;;0.57;0.20;;;16.30;88.80;;;;;;5050345;28;20036;-71
2021/09/12 02:26:33;;;;;;;0.25;0.25;;;16.30;88.80;;;;;;5046762;28;20017;-70
2021/09/12 02:29:00;;;;;;;0.30;0.30;;;16.30;88.90;;;;;;5047231;28;20623;-71
2021/09/12 02:31:26;;;;;;;0.63;0.50;;;16.30;88.80;;;;;;5047114;28;20019;-71
2021/09/12 02:33:53;;;;;;;1.25;0.47;;;16.30;88.90;;;;;;5049115;28;20056;-71
2021/09/12 02:36:19;;;;;;;0.30;0.30;;;16.30;88.80;;;;;;5046409;28;20079;-69
2021/09/12 02:38:46;;;;;;;1.85;0.43;;;16.30;88.90;;;;;;5046396;28;20025;-70
2021/09/12 02:41:12;;;;;;;3.03;0.50;;;16.30;88.90;;;;;;5045210;28;20065;-69
2021/09/12 02:43:39;;;;;;;0.30;0.30;;;16.30;88.70;;;;;;5047043;28;20082;-69
2021/09/12 02:46:06;;;;;;;0.30;0.30;;;16.30;88.80;;;;;;5046939;28;20422;-69
2021/09/12 02:48:33;;;;;;;0.38;0.22;;;16.30;88.80;;;;;;5041882;28;20032;-69
2021/09/12 02:50:59;;;;;;;0.90;0.28;;;16.30;88.90;;;;;;5036097;28;20017;-69
2021/09/12 02:53:26;;;;;;;2.35;0.28;;;16.30;88.80;;;;;;5046193;28;20052;-69
2021/09/12 02:55:52;;;;;;;1.88;0.30;;;16.30;88.50;;;;;;5044749;28;20018;-70
2021/09/12 02:58:19;;;;;;;1.42;0.50;;;16.20;88.30;;;;;;5045933;28;20597;-68
2021/09/12 03:00:45;;;;;;;0.40;0.20;;;16.20;88.60;;;;;;5047873;28;20079;-70
2021/09/12 03:03:12;;;;;;;0.88;0.30;;;16.20;88.70;;;;;;5042291;28;20104;-70
2021/09/12 03:05:38;;;;;;;0.20;0.20;;;16.30;88.60;;;;;;5045942;28;20025;-69
2021/09/12 03:08:05;;;;;;;0.55;0.55;;;16.20;88.50;;;;;;5046109;28;20021;-69
2021/09/12 03:10:31;;;;;;;0.65;0.30;;;16.20;88.50;;;;;;5047336;28;20021;-70
2021/09/12 03:12:58;;;;;;;0.55;0.47;;;16.20;88.80;;;;;;5039947;28;20361;-69
2021/09/12 03:15:25;;;;;;;0.30;0.30;;;16.20;89.00;;;;;;5040390;28;20025;-69
2021/09/12 03:17:51;;;;;;;0.52;0.20;;;16.20;89.10;;;;;;5050048;28;20025;-69
2021/09/12 03:20:18;;;;;;;1.10;0.32;;;16.20;89.30;;;;;;5044990;28;20016;-69
2021/09/12 03:22:44;;;;;;;3.20;0.30;;;16.20;89.60;;;;;;5045831;28;20049;-69
2021/09/12 03:25:11;;;;;;;0.95;0.38;;;16.20;89.80;;;;;;5043735;28;20926;-68
2021/09/12 03:27:37;;;;;;;19.23;15.90;;;16.20;90.00;;;;;;5041044;28;20025;-68
2021/09/12 03:30:04;;;;;;;14.23;10.55;;;16.20;90.00;;;;;;5050468;28;20024;-67
2021/09/12 03:32:31;;;;;;;7.47;4.30;;;16.30;90.10;;;;;;5042443;28;20018;-68
2021/09/12 03:34:57;;;;;;;1.10;1.00;;;16.20;90.00;;;;;;5043222;28;20013;-68
2021/09/12 03:37:24;;;;;;;0.98;0.50;;;16.20;90.00;;;;;;5040560;28;20386;-69
2021/09/12 03:39:51;;;;;;;2.00;0.40;;;16.20;89.90;;;;;;5041801;28;20094;-70
2021/09/12 03:42:17;;;;;;;0.50;0.40;;;16.20;90.00;;;;;;5042513;28;20049;-68
2021/09/12 03:44:44;;;;;;;0.95;0.60;;;16.20;90.00;;;;;;5045566;28;20021;-70
2021/09/12 03:47:10;;;;;;;0.90;0.70;;;16.20;90.10;;;;;;5044287;28;20014;-71
2021/09/12 03:49:37;;;;;;;1.20;0.60;;;16.20;90.20;;;;;;5034926;28;20026;-67
2021/09/12 03:52:03;;;;;;;1.20;0.63;;;16.10;90.20;;;;;;5038348;28;20020;-68
2021/09/12 03:54:30;;;;;;;0.30;0.30;;;16.10;90.10;;;;;;5038565;28;20023;-69
2021/09/12 03:56:56;;;;;;;3.33;0.82;;;16.10;90.20;;;;;;5042522;28;20063;-68
2021/09/12 03:59:23;;;;;;;0.88;0.40;;;16.10;90.30;;;;;;5039262;28;20121;-68
2021/09/12 04:01:49;;;;;;;1.30;0.65;;;16.10;90.30;;;;;;5040601;28;20476;-70
2021/09/12 04:04:16;;;;;;;0.95;0.40;;;16.10;90.20;;;;;;5050525;28;20037;-67
2021/09/12 04:06:42;;;;;;;2.55;1.65;;;16.00;90.30;;;;;;5048722;28;20023;-68
2021/09/12 04:09:09;;;;;;;0.38;0.32;;;16.00;90.40;;;;;;5050159;28;20017;-68
2021/09/12 04:11:35;;;;;;;1.23;0.40;;;16.00;90.40;;;;;;5048305;28;20029;-67
2021/09/12 04:14:02;;;;;;;0.38;0.32;;;16.00;90.50;;;;;;5051331;28;20100;-68
2021/09/12 04:16:28;;;;;;;2.50;0.85;;;16.00;90.60;;;;;;5046915;28;20032;-66
2021/09/12 04:18:55;;;;;;;37.90;33.83;;;16.00;90.70;;;;;;5048308;28;20380;-66
2021/09/12 04:21:21;;;;;;;124.63;98.25;;;16.00;90.70;;;;;;5047396;28;20017;-66
2021/09/12 04:23:48;;;;;;;16.90;15.15;;;16.00;90.70;;;;;;5050925;28;20024;-67
2021/09/12 04:26:14;;;;;;;3.28;1.95;;;16.10;90.80;;;;;;5039994;28;20071;-67
2021/09/12 04:28:41;;;;;;;2.58;0.80;;;16.00;90.80;;;;;;5044653;28;20032;-67
2021/09/12 04:31:07;;;;;;;1.73;0.63;;;16.00;90.80;;;;;;5047974;28;20021;-66
2021/09/12 04:33:34;;;;;;;3.92;1.33;;;16.00;90.90;;;;;;5047474;28;20098;-67
2021/09/12 04:36:00;;;;;;;5.00;0.98;;;16.00;90.90;;;;;;5044561;28;20021;-67
2021/09/12 04:38:27;;;;;;;1.05;0.60;;;16.00;90.90;;;;;;5042499;28;20036;-67
2021/09/12 04:40:53;;;;;;;5.63;0.80;;;16.00;90.90;;;;;;5040988;28;20021;-67
2021/09/12 04:43:20;;;;;;;1.65;0.80;;;16.00;90.90;;;;;;5041082;28;20025;-67
2021/09/12 04:45:46;;;;;;;1.10;0.82;;;16.00;91.00;;;;;;5040619;28;20037;-67
2021/09/12 04:48:13;;;;;;;4.57;0.85;;;16.00;91.10;;;;;;5050694;28;20032;-68
2021/09/12 04:50:40;;;;;;;2.42;1.17;;;16.00;91.10;;;;;;5045696;28;20027;-67
2021/09/12 04:53:06;;;;;;;1.75;0.40;;;16.00;91.10;;;;;;5048546;28;20025;-68
2021/09/12 04:55:33;;;;;;;4.60;1.10;;;16.00;91.20;;;;;;5041439;28;20837;-67
2021/09/12 04:57:59;;;;;;;1.55;1.42;;;16.00;91.20;;;;;;5041594;28;20022;-66
2021/09/12 05:00:26;;;;;;;20.67;17.40;;;16.00;91.20;;;;;;5042337;28;20041;-67
2021/09/12 05:02:52;;;;;;;7.15;6.25;;;16.00;91.10;;;;;;5048807;28;20104;-68
2021/09/12 05:05:19;;;;;;;1.77;1.45;;;15.90;91.10;;;;;;5036358;28;20047;-67
2021/09/12 05:07:45;;;;;;;0.77;0.68;;;15.90;91.10;;;;;;5034206;28;20383;-67
2021/09/12 05:10:12;;;;;;;1.85;0.77;;;15.90;91.20;;;;;;5039295;28;20035;-65
2021/09/12 05:12:39;;;;;;;0.80;0.57;;;15.90;91.30;;;;;;5038873;28;20032;-70
2021/09/12 05:15:06;;;;;;;4.50;1.15;;;15.90;91.20;;;;;;5037087;28;20024;-67
2021/09/12 05:17:33;;;;;;;1.50;1.20;;;15.90;91.20;;;;;;5040105;28;20025;-66
2021/09/12 05:19:59;;;;;;;2.05;0.73;;;15.90;91.10;;;;;;5038090;28;20365;-66
2021/09/12 05:22:26;;;;;;;2.17;0.85;;;15.90;91.10;;;;;;5038089;28;20021;-67
2021/09/12 05:24:52;;;;;;;1.70;0.60;;;15.90;91.10;;;;;;5045084;28;20079;-67
2021/09/12 05:27:19;;;;;;;2.05;0.90;;;15.90;91.10;;;;;;5044605;28;20021;-67
2021/09/12 05:29:45;;;;;;;1.42;0.90;;;15.90;91.10;;;;;;5049018;28;20033;-67
2021/09/12 05:32:12;;;;;;;4.82;1.48;;;15.90;91.10;;;;;;5047646;28;20020;-67
2021/09/12 05:34:39;;;;;;;1.20;1.10;;;15.90;91.20;;;;;;5043263;28;20652;-67
2021/09/12 05:37:06;;;;;;;2.80;1.15;;;15.80;91.20;;;;;;5039982;28;20029;-67
2021/09/12 05:39:32;;;;;;;1.70;0.90;;;15.90;91.30;;;;;;5038145;28;20404;-68
2021/09/12 05:41:59;;;;;;;3.00;0.95;;;15.90;91.30;;;;;;5042451;28;20105;-68
2021/09/12 05:44:25;;;;;;;2.70;1.83;;;15.90;91.40;;;;;;5048472;28;20068;-70
2021/09/12 05:46:52;;;;;;;1.60;1.17;;;15.90;91.40;;;;;;5040442;28;20067;-68
2021/09/12 05:49:19;;;;;;;17.13;15.32;;;15.90;91.40;;;;;;5048101;28;20100;-66
2021/09/12 05:51:47;;;;;;;18.23;14.00;;;15.90;91.40;;;;;;5044432;28;20044;-68
2021/09/12 05:54:13;;;;;;;6.38;4.35;;;15.90;91.40;;;;;;5042039;28;20032;-69
2021/09/12 05:56:40;;;;;;;3.53;2.05;;;15.90;91.50;;;;;;5044200;28;20131;-68
2021/09/12 05:59:07;;;;;;;2.78;0.70;;;15.90;91.40;;;;;;5042925;28;20098;-68
2021/09/12 06:01:34;;;;;;;3.35;1.45;;;15.90;91.50;;;;;;5045235;28;20029;-68
2021/09/12 06:04:00;;;;;;;3.35;0.95;;;15.90;91.50;;;;;;5038932;28;20025;-68
2021/09/12 06:06:27;;;;;;;3.33;0.57;;;15.90;91.50;;;;;;5042262;28;20020;-67
2021/09/12 06:08:53;;;;;;;2.03;0.70;;;15.90;91.60;;;;;;5044629;28;20082;-68
2021/09/12 06:11:59;;;;;;;1.45;0.77;;;15.80;91.50;;;;;;5042899;28;20351;-69
2021/09/12 06:15:05;;;;;;;2.28;0.70;;;15.90;91.60;;;;;;5046124;28;20055;-68
2021/09/12 06:18:11;;;;;;;0.65;0.43;;;15.90;91.60;;;;;;5047196;28;20029;-70
2021/09/12 06:21:17;;;;;;;1.02;0.40;;;15.90;91.60;;;;;;5043529;28;20087;-69
2021/09/12 06:24:23;;;;;;;0.63;0.40;;;15.90;91.60;;;;;;5038465;28;20592;-71
2021/09/12 06:26:50;;;;;;;1.17;0.57;;;15.80;91.60;;;;;;5033774;28;20124;-69
2021/09/12 06:29:16;;;;;;;1.20;0.52;;;15.90;91.70;;;;;;5038243;28;20033;-68
2021/09/12 06:31:43;;;;;;;2.45;0.60;;;15.90;91.70;;;;;;5038442;28;20100;-66
2021/09/12 06:34:09;;;;;;;4.30;0.70;;;15.90;91.70;;;;;;5042350;28;20033;-67
2021/09/12 06:36:36;;;;;;;1.42;0.55;;;15.90;91.70;;;;;;5034848;28;20483;-67
2021/09/12 06:39:02;;;;;;;0.80;0.70;;;15.90;91.70;;;;;;5041366;28;20021;-67
2021/09/12 06:41:29;;;;;;;3.25;0.88;;;15.90;91.80;;;;;;5039902;28;20016;-67
2021/09/12 06:43:56;;;;;;;2.50;1.08;;;15.90;91.70;;;;;;5037402;28;20021;-70
2021/09/12 06:46:22;;;;;;;0.85;0.40;;;15.90;91.80;;;;;;5037812;28;20024;-68
2021/09/12 06:48:49;;;;;;;52.20;40.17;;;15.90;91.80;;;;;;5036155;28;20017;-69
2021/09/12 06:51:15;;;;;;;32.33;19.20;;;15.90;91.80;;;;;;5035498;28;20091;-67
2021/09/12 06:53:42;;;;;;;6.10;4.22;;;15.90;92.00;;;;;;5036859;28;20017;-69
2021/09/12 06:56:08;;;;;;;5.28;2.47;;;15.90;91.90;;;;;;5033188;28;20029;-68
2021/09/12 06:58:35;;;;;;;1.15;0.50;;;15.90;91.90;;;;;;5033037;28;20021;-68
2021/09/12 07:01:01;;;;;;;1.60;0.47;;;15.90;91.90;;;;;;5035962;28;20025;-68
2021/09/12 07:03:28;;;;;;;2.97;0.47;;;15.90;91.90;;;;;;5034888;28;20021;-68
2021/09/12 07:05:55;;;;;;;1.42;0.30;;;16.00;91.90;;;;;;5038694;28;20041;-69
2021/09/12 07:08:21;;;;;;;0.68;0.40;;;15.90;91.90;;;;;;5037041;28;20468;-69
2021/09/12 07:10:48;;;;;;;1.55;0.50;;;15.90;91.90;;;;;;5038468;28;20025;-71
2021/09/12 07:13:14;;;;;;;1.35;0.50;;;15.90;91.90;;;;;;5043810;28;20077;-68
2021/09/12 07:15:41;;;;;;;0.95;0.55;;;15.90;91.90;;;;;;5035256;28;20029;-67
2021/09/12 07:18:07;;;;;;;1.65;0.95;;;15.90;92.00;;;;;;5036992;28;20502;-68
2021/09/12 07:20:36;;;;;;;0.68;0.50;;;16.00;92.10;;;;;;5035083;28;20028;-71
2021/09/12 07:23:03;;;;;;;1.48;0.50;;;16.00;92.20;;;;;;5037136;28;20022;-69
2021/09/12 07:25:30;;;;;;;2.33;0.60;;;16.00;92.20;;;;;;5038169;28;20033;-66
2021/09/12 07:27:57;;;;;;;1.38;0.75;;;16.00;92.20;;;;;;5042279;28;20380;-68
2021/09/12 07:30:23;;;;;;;3.33;2.20;;;16.00;92.30;;;;;;5040622;28;20055;-71
2021/09/12 07:32:51;;;;;;;3.40;1.20;;;16.00;92.30;;;;;;5040099;28;20028;-68
2021/09/12 07:35:17;;;;;;;48.80;41.38;;;16.10;92.30;;;;;;5045577;28;20040;-69
2021/09/12 07:37:44;;;;;;;64.72;55.28;;;16.10;92.40;;;;;;5040638;28;20425;-68
2021/09/12 07:40:11;;;;;;;8.20;5.53;;;16.10;92.40;;;;;;5040412;28;20483;-66
2021/09/12 07:42:40;;;;;;;1.90;1.08;;;16.10;92.40;;;;;;5040946;28;20033;-67
2021/09/12 07:45:07;;;;;;;2.40;1.13;;;16.20;92.50;;;;;;5040339;28;20036;-65
2021/09/12 07:47:34;;;;;;;1.90;1.02;;;16.20;92.50;;;;;;5041865;28;20104;-67
2021/09/12 07:50:00;;;;;;;1.05;0.80;;;16.20;92.50;;;;;;5038736;28;20029;-67
2021/09/12 07:52:27;;;;;;;1.25;0.90;;;16.20;92.50;;;;;;5039027;28;20025;-70
2021/09/12 07:54:53;;;;;;;2.20;0.70;;;16.20;92.60;;;;;;5037452;28;20009;-70
2021/09/12 07:57:20;;;;;;;1.35;0.90;;;16.20;92.60;;;;;;5040287;28;20045;-70
2021/09/12 07:59:46;;;;;;;3.83;1.80;;;16.30;92.70;;;;;;5034946;28;20115;-70
2021/09/12 08:02:13;;;;;;;2.60;1.30;;;16.30;92.70;;;;;;5035784;28;20384;-70
2021/09/12 08:04:39;;;;;;;5.50;2.53;;;16.30;92.70;;;;;;5036210;28;20029;-70
2021/09/12 08:07:06;;;;;;;3.63;1.27;;;16.30;92.80;;;;;;5039573;28;20029;-68
2021/09/12 08:09:33;;;;;;;1.60;1.27;;;16.40;93.00;;;;;;5035863;28;20546;-75
2021/09/12 08:11:59;;;;;;;14.23;12.77;;;16.40;93.10;;;;;;5044013;28;20083;-70
2021/09/12 08:14:26;;;;;;;5.82;4.75;;;16.50;93.20;;;;;;5043225;28;20029;-69
2021/09/12 08:16:53;;;;;;;9.13;5.32;;;16.50;93.30;;;;;;5037138;28;20141;-73
2021/09/12 08:19:19;;;;;;;2.50;2.28;;;16.50;93.30;;;;;;5040405;28;20170;-71
2021/09/12 08:21:46;;;;;;;3.33;1.98;;;16.60;93.30;;;;;;5044288;28;20025;-71
2021/09/12 08:24:13;;;;;;;1.58;1.20;;;16.70;93.40;;;;;;5041216;28;20039;-72
2021/09/12 08:26:39;;;;;;;3.05;0.82;;;16.70;93.30;;;;;;5046658;28;20542;-69
2021/09/12 08:29:06;;;;;;;1.58;1.00;;;16.70;93.40;;;;;;5046470;28;20383;-72
2021/09/12 08:31:32;;;;;;;4.05;1.17;;;16.70;93.50;;;;;;5041483;28;20171;-71
2021/09/12 08:33:59;;;;;;;14.40;11.25;;;16.70;93.30;;;;;;5044824;28;20013;-73
2021/09/12 08:36:25;;;;;;;11.40;6.95;;;16.80;93.30;;;;;;5042330;28;20379;-71
2021/09/12 08:38:52;;;;;;;2.38;1.60;;;16.80;93.20;;;;;;5040034;28;20013;-72
2021/09/12 08:41:19;;;;;;;1.73;0.98;;;16.80;93.10;;;;;;5047101;28;20546;-72
2021/09/12 08:43:48;;;;;;;1.88;0.93;;;16.80;93.10;;;;;;5046666;28;20376;-72
2021/09/12 08:46:16;;;;;;;1.15;0.90;;;16.80;93.00;;;;;;5043130;28;20060;-71
2021/09/12 08:48:44;;;;;;;1.58;1.02;;;16.80;93.00;;;;;;5046793;28;20017;-72
2021/09/12 08:51:10;;;;;;;4.45;1.58;;;16.80;93.00;;;;;;5045117;28;20021;-78
2021/09/12 08:53:37;;;;;;;2.63;1.35;;;16.90;93.00;;;;;;5046171;28;20017;-74
2021/09/12 08:56:03;;;;;;;7.38;1.95;;;16.90;93.00;;;;;;5052088;28;20083;-70
2021/09/12 08:58:30;;;;;;;7.70;1.90;;;16.80;92.80;;;;;;5043860;28;20032;-75
2021/09/12 09:01:01;;;;;;;8.70;2.97;;;16.90;92.70;;;;;;5052121;28;20025;-69
2021/09/12 09:03:44;;;;;;;7.00;2.47;;;16.90;92.60;;;;;;5044991;28;20049;-68
2021/09/12 09:06:17;;;;;;;7.82;2.15;;;16.90;92.60;;;;;;5049330;28;20168;-73
2021/09/12 09:08:55;;;;;;;2.20;1.50;;;17.00;92.70;;;;;;5043405;28;20029;-68
2021/09/12 09:11:29;;;;;;;56.53;45.38;;;17.00;92.60;;;;;;5042831;28;20108;-70
2021/09/12 09:13:56;;;;;;;10.07;3.33;;;17.10;92.60;;;;;;5050033;28;20018;-70
2021/09/12 09:16:29;;;;;;;7.60;3.25;;;17.10;92.30;;;;;;5045958;28;20013;-72
2021/09/12 09:19:06;;;;;;;8.88;3.60;;;17.10;92.10;;;;;;5049714;28;20076;-68
2021/09/12 09:21:35;;;;;;;7.80;2.72;;;17.10;92.00;;;;;;5044885;28;20037;-67
2021/09/12 09:24:09;;;;;;;4.53;2.85;;;17.10;92.00;;;;;;5050719;28;20542;-66
2021/09/12 09:26:56;;;;;;;5.13;2.33;;;17.10;91.90;;;;;;5047549;28;20025;-66
2021/09/12 09:29:34;;;;;;;4.72;2.10;;;17.20;91.90;;;;;;5047043;28;20943;-68
2021/09/12 09:32:14;;;;;;;7.70;2.00;;;17.20;91.90;;;;;;5045372;28;20074;-69
2021/09/12 09:34:43;;;;;;;7.93;2.42;;;17.30;91.80;;;;;;5045440;28;20045;-68
2021/09/12 09:37:13;;;;;;;6.88;2.58;;;17.40;91.70;;;;;;5045575;28;20083;-79
2021/09/12 09:39:41;;;;;;;9.27;2.67;;;17.50;91.80;;;;;;5040215;28;20472;-71
2021/09/12 09:42:37;;;;;;;8.05;2.42;;;17.60;91.60;;;;;;5048332;28;20017;-70
2021/09/12 09:45:05;;;;;;;6.32;2.88;;;17.70;91.30;;;;;;5046293;28;20120;-70
2021/09/12 09:47:32;;;;;;;6.30;2.75;;;17.70;90.70;;;;;;5044354;28;20500;-71
2021/09/12 09:50:09;;;;;;;7.28;2.75;;;17.80;90.50;;;;;;5046078;28;20025;-71
2021/09/12 09:52:37;;;;;;;9.65;2.83;;;17.80;90.40;;;;;;5046636;28;20031;-71
2021/09/12 09:55:07;;;;;;;11.10;3.28;;;17.90;90.30;;;;;;5043862;28;20067;-70
2021/09/12 09:57:35;;;;;;;11.20;3.55;;;17.90;90.20;;;;;;5043234;28;20036;-71
2021/09/12 10:00:04;;;;;;;11.07;3.45;;;17.90;90.00;;;;;;5047120;28;20049;-71
2021/09/12 10:02:33;;;;;;;10.40;4.15;;;18.00;90.10;;;;;;5045060;28;20021;-71
2021/09/12 10:05:05;;;;;;;7.00;3.08;;;18.00;90.10;;;;;;5047938;28;20120;-71
2021/09/12 10:07:33;;;;;;;10.23;3.55;;;18.10;90.10;;;;;;5044397;28;20100;-70
2021/09/12 10:10:01;;;;;;;13.30;3.85;;;18.20;89.10;;;;;;5044375;28;20021;-71
2021/09/12 10:12:31;;;;;;;6.63;2.00;;;18.30;89.00;;;;;;5041968;28;20053;-71
2021/09/12 10:15:02;;;;;;;13.35;2.47;;;18.40;88.70;;;;;;5046924;28;20013;-70
2021/09/12 10:17:34;;;;;;;10.15;2.42;;;18.40;87.20;;;;;;5046387;28;20020;-71
2021/09/12 10:20:12;;;;;;;12.70;3.22;;;18.30;86.20;;;;;;5045725;28;20026;-71
2021/09/12 10:23:12;;;;;;;9.70;2.78;;;18.20;86.70;;;;;;5044165;28;20031;-71
2021/09/12 10:25:54;;;;;;;12.10;2.65;;;18.10;87.50;;;;;;5029501;28;20045;-71
2021/09/12 10:28:34;;;;;;;14.20;4.55;;;18.00;88.00;;;;;;5047025;28;20021;-70
2021/09/12 10:31:21;;;;;;;12.20;3.28;;;18.00;88.20;;;;;;5046226;28;20385;-71
2021/09/12 10:34:10;;;;;;;8.73;2.70;;;18.10;88.50;;;;;;5038319;28;20352;-70
2021/09/12 10:36:39;;;;;;;12.57;3.92;;;18.00;88.80;;;;;;5043192;28;20021;-70
2021/09/12 10:39:25;;;;;;;16.38;3.65;;;18.00;88.90;;;;;;5041339;28;20539;-71
2021/09/12 10:42:13;;;;;;;8.75;2.47;;;18.10;88.20;;;;;;5043147;28;20059;-71
2021/09/12 10:44:40;;;;;;;10.18;2.60;;;18.10;88.10;;;;;;5045166;28;20086;-70
2021/09/12 10:47:09;;;;;;;10.38;2.80;;;18.10;88.00;;;;;;5044862;28;20013;-70
2021/09/12 10:49:36;;;;;;;11.32;3.17;;;18.20;88.10;;;;;;5047776;28;20021;-70
2021/09/12 10:52:02;;;;;;;10.13;2.47;;;18.20;87.80;;;;;;5047856;28;20049;-70
2021/09/12 10:54:31;;;;;;;10.00;2.40;;;18.10;87.10;;;;;;5048570;28;20025;-71
2021/09/12 10:57:08;;;;;;;13.40;2.78;;;18.20;87.40;;;;;;5043929;28;20025;-70
2021/09/12 10:59:36;;;;;;;15.20;3.22;;;18.20;86.70;;;;;;5042138;28;20091;-71
2021/09/12 11:02:02;;;;;;;12.35;3.08;;;18.30;87.50;;;;;;5041242;28;20017;-70
2021/09/12 11:04:33;;;;;;;7.78;1.83;;;18.30;87.00;;;;;;5045765;28;20040;-70
2021/09/12 11:07:04;;;;;;;9.82;2.88;;;18.30;86.10;;;;;;5049270;28;20068;-70
2021/09/12 11:09:32;;;;;;;9.60;2.50;;;18.30;85.50;;;;;;5046910;28;20101;-70
2021/09/12 11:12:06;;;;;;;7.18;2.65;;;18.40;85.40;;;;;;5039837;28;20023;-71
2021/09/12 11:14:35;;;;;;;7.35;2.45;;;18.40;85.10;;;;;;5046585;28;20025;-70
2021/09/12 11:17:09;;;;;;;14.05;2.30;;;18.60;83.60;;;;;;5045538;28;20017;-70
2021/09/12 11:19:37;;;;;;;10.13;2.47;;;18.70;82.60;;;;;;5049088;28;20436;-70
2021/09/12 11:22:04;;;;;;;6.07;1.92;;;18.80;81.20;;;;;;5039789;28;20026;-70
2021/09/12 11:24:31;;;;;;;7.95;2.80;;;18.90;81.30;;;;;;5048112;28;20037;-70
2021/09/12 11:27:02;;;;;;;10.00;2.35;;;18.90;80.80;;;;;;5045896;28;20096;-70
2021/09/12 11:29:30;;;;;;;11.35;2.00;;;18.90;81.00;;;;;;5046012;28;20483;-70
2021/09/12 11:32:08;;;;;;;8.35;2.45;;;18.80;81.30;;;;;;5048951;28;20444;-70
2021/09/12 11:34:37;;;;;;;11.23;3.70;;;18.60;82.80;;;;;;5045723;28;20060;-71
2021/09/12 11:37:11;;;;;;;8.98;2.88;;;18.50;84.30;;;;;;5044297;28;20013;-70
2021/09/12 11:39:40;;;;;;;5.38;2.00;;;18.40;84.20;;;;;;5040047;28;20037;-70
2021/09/12 11:42:10;;;;;;;9.90;2.50;;;18.10;83.90;;;;;;5046711;28;20013;-70
2021/09/12 11:44:38;;;;;;;6.68;2.20;;;18.00;85.20;;;;;;5042025;28;20013;-69
2021/09/12 11:47:10;;;;;;;7.00;1.80;;;17.80;87.00;;;;;;5045377;28;20435;-70
2021/09/12 11:49:38;;;;;;;9.07;2.08;;;17.70;87.80;;;;;;5042498;28;20108;-70
2021/09/12 11:52:04;;;;;;;9.32;3.70;;;17.70;88.00;;;;;;5045203;28;20432;-70
2021/09/12 11:54:32;;;;;;;6.35;1.98;;;17.60;88.50;;;;;;5046760;28;20017;-70
2021/09/12 11:57:17;;;;;;;11.10;2.15;;;17.60;89.30;;;;;;5043433;28;20021;-70
2021/09/12 11:59:49;;;;;;;5.17;2.00;;;17.60;89.60;;;;;;5040917;28;20068;-70
2021/09/12 12:02:17;;;;;;;7.32;2.00;;;17.70;90.30;;;;;;5047233;28;20748;-70
2021/09/12 12:04:45;;;;;;;12.38;3.45;;;17.80;90.40;;;;;;5041281;28;20091;-70
2021/09/12 12:07:12;;;;;;;11.13;3.85;;;17.80;89.70;;;;;;5041909;28;20020;-70
2021/09/12 12:09:46;;;;;;;9.13;1.92;;;17.90;88.50;;;;;;5043084;28;20024;-70
2021/09/12 12:12:20;;;;;;;12.90;2.70;;;18.00;85.60;;;;;;5046825;28;20013;-70
2021/09/12 12:15:00;;;;;;;6.18;2.72;;;18.00;80.30;;;;;;5046502;28;20056;-71
2021/09/12 12:17:27;;;;;;;4.75;1.48;;;18.00;80.10;;;;;;5047317;28;20013;-71
2021/09/12 12:19:56;;;;;;;2.90;0.98;;;18.00;78.90;;;;;;5045783;28;20479;-71
2021/09/12 12:22:33;;;;;;;7.55;2.05;;;18.00;77.50;;;;;;5049645;28;20017;-70
2021/09/12 12:25:00;;;;;;;3.80;1.58;;;18.00;78.10;;;;;;5050068;28;20032;-70
2021/09/12 12:27:26;;;;;;;4.25;1.75;;;17.90;78.70;;;;;;5047060;28;20017;-71
2021/09/12 12:30:01;;;;;;;4.28;1.25;;;18.10;78.80;;;;;;5048147;28;20025;-71
2021/09/12 12:32:29;;;;;;;7.28;1.30;;;18.10;76.80;;;;;;5050023;28;20021;-71
2021/09/12 12:34:57;;;;;;;5.90;1.77;;;18.10;76.60;;;;;;5048238;28;20047;-71
2021/09/12 12:37:44;;;;;;;2.47;0.88;;;18.20;76.60;;;;;;5048120;28;20422;-71
2021/09/12 12:40:22;;;;;;;7.95;2.05;;;18.30;76.00;;;;;;5047375;28;20059;-71
2021/09/12 12:42:51;;;;;;;4.13;1.40;;;18.40;74.60;;;;;;5051483;28;20112;-71
2021/09/12 12:45:32;;;;;;;3.53;1.70;;;18.50;74.50;;;;;;5049739;28;20112;-69
2021/09/12 12:48:07;;;;;;;6.25;3.13;;;18.70;75.00;;;;;;5049186;28;20490;-71
2021/09/12 12:50:35;;;;;;;;;;;18.70;74.60;;;;;;5049712;28;20120;-72
2021/09/12 12:53:17;;;;;;;5.82;2.58;;;18.80;75.00;;;;;;5045405;28;19908;-67
2021/09/12 12:55:44;;;;;;;6.05;2.13;;;18.90;75.20;;;;;;5046382;28;20025;-73